Newport News Williamsburg International Airport
KPHF : now visible

Airfield :











YOU CAN JOIN US ON...

 
LOGIN :

Register | Disclaimer

   EN    FR    IT 

 









Legend :    VFR   Marginal VFR   IFR   Intensive IFR   Very Intensive IFR
Visi :
Ceiling :
>= 8 km
>= 3000ft
5 to 8 km
1000 to 3000 ft
1500m to 5 km
500 to 1000 ft
800 to 1500m
200 to 500 ft
< 800m
< 200 ft
Symbols :   Thunderstorms  Fog  Heavy snow  Heavy precipitations  Wind > 20 kt







- Airport Elevation : 42 ft
- IATA code : PHF


KPHF - Newport News Williamsburg International

CURRENT METAR :
  • 260354Z AUTO 04010G17KT 10SM FEW023 SCT036 SCT045 22/17 A3013 RMK AO2 SLP203 T02170172 $

EXPIRED METARs :
  • 260254Z AUTO 05010KT 10SM FEW024 22/17 A3013 RMK AO2 SLP201 T02170167 50006 $
  • 260154Z 06009KT 10SM CLR 22/16 A3014 RMK AO2 SLP204 T02170156 $

TAF KPHF
Valid from the 26 at 00:00 until the 27 at 00:00 UTC


252320Z 2600/2624 06010G18KT P6SM BKN080
FM260800 03010KT P6SM OVC020
FM261500 05011KT P6SM VCSH BKN035
No reported NOTAMs for that airfield.



MET'MAP, your aeronautical weather chart ! - Copyright ORBIFLY December 2007 - Disclaimer

ORBIFLY MET'MAP TEAM :

Programming & Development : Alexandra Zaïnal
Concept & Development : Baudouin d'Aumeries
Co-Development & Prog : Marc-Olivier Méhu
Technical & hardware support : Manuel Goepfert

Contact : metmap@orbifly.com




SOURCES & CREDITS :

   NOAA       Earth
Advisory